AirNav   Air Wisconsin Up To $57,000 Bonus
 
 1489 users online  

78WA Center Island Airport
Center Island, Washington, USA

GOING TO CENTER ISLAND?


FAA INFORMATION EFFECTIVE 02 DECEMBER 2021

Location

FAA Identifier: 78WA
Lat/Long: 48-29-24.3640N 122-49-55.6360W
48-29.406067N 122-49.927267W
48.4901011,-122.8321211
(estimated)
Elevation: 115 ft. / 35 m (estimated)
Variation: 21E (1985)
Time zone: UTC -8 (UTC -7 during Daylight Saving Time)
Zip code: 98221

Airport Operations

Airport use: Private use. Permission required prior to landing
Activation date: 11/1978
Control tower: no
ARTCC: SEATTLE CENTER
FSS: SEATTLE FLIGHT SERVICE STATION
Attendance: UNATNDD
Wind indicator: yes
Segmented circle: no
Lights: SS-SR

Airport Communications

WX ASOS at FHR (8 nm W): 135.675 (360-378-8491)
WX ASOS at NUW (11 nm SE): PHONE 360-257-8813
WX AWOS-3 at ORS (13 nm N): 135.425 (360-376-6045)
WX AWOS-3 at OKH (16 nm SE): 132.775 (360-675-8431)
WX AWOS-3 at BVS (16 nm E): 121.125 (360-757-7767)

Nearby radio navigation aids

VOR radial/distance  VOR name  Freq  Var
CVVr325/15.3PENN COVE VOR/DME117.2019E
HUHr180/29.1WHATCOM VORTAC113.0020E
YYJr102/29.5VICTORIA VOR/DME113.7017E
YVRr143/37.4VANCOUVER VOR/DME115.9017E

 
NDB name  Hdg/Dist  Freq  Var  ID
FRIDAY HARBOR083/7.728417EFHR ..-. .... .-.
SKAGIT/BAY VIEW258/16.524016EBVS -... ...- ...
EDIZ HOOK030/31.033817ENOW -. --- .--

Airport Services

Runway Information

Runway 17/35

Dimensions: 1600 x 100 ft. / 488 x 30 m
Surface: turf/gravel
Runway edge lights: low intensity
RUNWAY 17  RUNWAY 35
Traffic pattern: leftright
Obstructions: 50 ft. trees, 100 ft. from runway100 ft. trees, 50 ft. from runway

Airport Ownership and Management from official FAA records

Ownership: Privately-owned
Owner: CENTER ISLAND ASSOCIATION
CENTER ISLAND
ANACORTES, WA 98221-9461
Phone 360-375-6093
MAIL CORRESPONDENCES TO: C/O CENTER ISLAND ASSOC KIRKLAND ACCOUNTING 801 MARKET ST KIRKLAND WA 98033 425-822-0234
Manager: JOEL MARQUARDT
CENTER ISLAND
ANACORTES, WA 98221-9461
Phone 360-420-0219
OR 206-481-0326/206-743-1700 (WORK).

Airport Operational Statistics

Aircraft based on the field: 3
Single engine airplanes: 3
    

Additional Remarks

PPR FOR LANDING; TRNG OPNS PROHIBITED.
FOR CD CTC SEATTLE ARTCC AT 253-351-3694.

Instrument Procedures

There are no published instrument procedures at 78WA.

Some nearby airports with instrument procedures:

KFHR - Friday Harbor Airport (8 nm W)
KNUW - Whidbey Island Naval Air Station (Ault Field) (11 nm SE)
KORS - Orcas Island Airport (13 nm N)
KOKH - AJ Eisenberg Airport (16 nm SE)
KBVS - Skagit Regional Airport (16 nm E)
 
Loc | Ops | Rwys | IFR | FBO | Links
Com | Nav | Svcs | Stats | Notes
Area around 78WA (Center Island Airport)
 
Road maps at: MapQuest Bing Google
 
Aerial photo
WARNING: Photo may not be current or correct
Aerial photo of 78WA (Center Island Airport)
Do you have a better or more recent aerial photo of Center Island Airport that you would like to share? If so, please send us your photo.

 
Sectional chart

 
Airport distance calculator
Flying to Center Island Airport? Find the distance to fly.

From to 78WA

Sunrise and sunset
Times for 06-Dec-2021
 Local
(UTC-8)
 Zulu
(UTC)
Morning civil twilight07:1315:13
Sunrise07:4915:49
Sunset16:1600:16
Evening civil twilight16:5200:52

Current date and time
Zulu (UTC)  06-Dec-2021 16:54:36
Local (UTC-8)  06-Dec-2021 08:54:36
 
METAR
KFHR 
8nm W 
061632Z AUTO 07006KT 2 1/2SM BR BKN008 OVC012 03/02 A3007 RMK AO2 UPB1556E05 CIG 005V009 P0001 T00330022 TSNO
KNUW 
11nm SE 
061556Z 11010KT 10SM FEW017 OVC023 04/02 A3010 RMK AO2 SLP193 T00440022 $
KORS 
13nm N 
061635Z AUTO VRB06G11KT 3SM -RA BR OVC005 03/03 A3008 RMK AO2
CWZO 
16nm W 
061600Z AUTO 08010KT RMK AO1
KBVS 
17nm E 
061635Z AUTO 07005KT 2SM BR FEW021 BKN026 OVC032 03/02 A3008 RMK A01
CWYJ 
18nm W 
061600Z AUTO 06002KT 03/03 RMK AO1 2PAST HR 6019 SLP182 P0005 T00310031 50065
CWEZ 
18nm NW 
061600Z AUTO 08014KT 02/02 RMK AO1 2PAST HR 6019 PK WND 07020/1502 SLP186 P0001 T00150021 50030
CWLM 
20nm W 
061600Z AUTO 07005KT 03/03 RMK AO1 2PAST HR 7020 SLP177 P0005 T00320026 50078
CYWH 
20nm W 
061600Z 36006KT 1 1/2SM -RA BR SCT002 OVC006 02/02 A3006 RMK SF4ST4 SLP183
TAF
KNUW 
11nm SE 
0612/0707 15015G24KT 6000 RASN BKN010 BKN030 OVC080 650109 651008 540809 541701 QNH2997INS TEMPO 0612/0618 9999 BECMG 0618/0620 14009KT 8000 -RA BR BKN010 OVC015 650606 541503 QNH2993INS FM070500 VRB06KT 9999 VCSH BKN015 BKN030 OVC060 650605 500000 QNH2995INS TEMPO 0705/0707 8000 -RA BR BKN010 OVC015 T04/0612Z T08/0622Z AMD 1228 FS30173
CYWH 
20nm W 
061512Z 0615/0703 35006KT P6SM -RA SCT006 OVC012 TEMPO 0615/0620 2SM -RA BR SCT003 OVC006 FM062000 07008KT P6SM -RA SCT008 OVC020 TEMPO 0620/0703 4SM -RA BR OVC008 RMK NXT FCST BY 061800Z
NOTAMs
Click for the latest NOTAMs
NOTAMs are issued by the DoD/FAA and will open in a separate window not controlled by AirNav.

 

 
 

Would you like to see your business listed on this page?

 If your business provides an interesting product or service to pilots, flight crews, aircraft, or users of the Center Island Airport, you should consider listing it here.  To start the listing process, click on the button below
 
Add a business
 

Other Pages about Center Island Airport

Update a link
 
Copyright © AirNav, LLC. All rights reserved. Privacy Policy  Contact